sensor_id;sensor_type;location;lat;lon;timestamp;temperature;humidity
4934;DHT22;2482;49.154;8.254;2022-11-06T00:00:00;5.90;99.90
4934;DHT22;2482;49.154;8.254;2022-11-06T00:02:29;5.80;99.90
4934;DHT22;2482;49.154;8.254;2022-11-06T00:04:56;5.70;99.90
4934;DHT22;2482;49.154;8.254;2022-11-06T00:07:46;5.60;99.90
4934;DHT22;2482;49.154;8.254;2022-11-06T00:10:15;5.40;99.90
4934;DHT22;2482;49.154;8.254;2022-11-06T00:12:44;5.60;99.90
4934;DHT22;2482;49.154;8.254;2022-11-06T00:15:11;5.50;99.90
4934;DHT22;2482;49.154;8.254;2022-11-06T00:17:39;5.30;99.90
4934;DHT22;2482;49.154;8.254;2022-11-06T00:20:07;5.10;99.90
4934;DHT22;2482;49.154;8.254;2022-11-06T00:22:36;5.00;99.90
4934;DHT22;2482;49.154;8.254;2022-11-06T00:25:04;5.10;99.90
4934;DHT22;2482;49.154;8.254;2022-11-06T00:27:35;4.90;99.90
4934;DHT22;2482;49.154;8.254;2022-11-06T00:30:04;4.80;99.90
4934;DHT22;2482;49.154;8.254;2022-11-06T00:32:33;4.80;99.90
4934;DHT22;2482;49.154;8.254;2022-11-06T00:35:00;4.80;99.90
4934;DHT22;2482;49.154;8.254;2022-11-06T00:37:28;4.80;99.90
4934;DHT22;2482;49.154;8.254;2022-11-06T00:39:55;4.80;99.90
4934;DHT22;2482;49.154;8.254;2022-11-06T00:42:22;4.80;99.90
4934;DHT22;2482;49.154;8.254;2022-11-06T00:44:49;4.80;99.90
4934;DHT22;2482;49.154;8.254;2022-11-06T00:47:16;4.80;99.90
4934;DHT22;2482;49.154;8.254;2022-11-06T00:49:44;4.90;99.90
4934;DHT22;2482;49.154;8.254;2022-11-06T00:52:11;4.90;99.90
4934;DHT22;2482;49.154;8.254;2022-11-06T00:54:38;4.80;99.90
4934;DHT22;2482;49.154;8.254;2022-11-06T00:57:05;4.70;99.90
4934;DHT22;2482;49.154;8.254;2022-11-06T00:59:35;4.90;99.90
4934;DHT22;2482;49.154;8.254;2022-11-06T01:02:08;5.00;99.90
4934;DHT22;2482;49.154;8.254;2022-11-06T01:04:35;5.00;99.90
4934;DHT22;2482;49.154;8.254;2022-11-06T01:07:02;5.00;99.90
4934;DHT22;2482;49.154;8.254;2022-11-06T01:09:29;5.10;99.90
4934;DHT22;2482;49.154;8.254;2022-11-06T01:11:58;5.10;99.90
4934;DHT22;2482;49.154;8.254;2022-11-06T01:14:41;5.20;99.90
4934;DHT22;2482;49.154;8.254;2022-11-06T01:17:09;5.20;99.90
4934;DHT22;2482;49.154;8.254;2022-11-06T01:19:36;5.30;99.90
4934;DHT22;2482;49.154;8.254;2022-11-06T01:22:06;5.40;99.90
4934;DHT22;2482;49.154;8.254;2022-11-06T01:24:33;5.40;99.90
4934;DHT22;2482;49.154;8.254;2022-11-06T01:27:01;5.30;99.90
4934;DHT22;2482;49.154;8.254;2022-11-06T01:29:48;5.30;99.90
4934;DHT22;2482;49.154;8.254;2022-11-06T01:32:15;5.50;99.90
4934;DHT22;2482;49.154;8.254;2022-11-06T01:34:43;5.30;99.90
4934;DHT22;2482;49.154;8.254;2022-11-06T01:37:12;5.20;99.90
4934;DHT22;2482;49.154;8.254;2022-11-06T01:39:41;5.20;99.90
4934;DHT22;2482;49.154;8.254;2022-11-06T01:42:12;5.40;99.90
4934;DHT22;2482;49.154;8.254;2022-11-06T01:47:27;5.30;99.90
4934;DHT22;2482;49.154;8.254;2022-11-06T01:50:00;5.40;99.90
4934;DHT22;2482;49.154;8.254;2022-11-06T01:52:32;5.30;99.90
4934;DHT22;2482;49.154;8.254;2022-11-06T01:55:13;5.40;99.90
4934;DHT22;2482;49.154;8.254;2022-11-06T01:57:46;5.40;99.90
4934;DHT22;2482;49.154;8.254;2022-11-06T02:00:14;5.30;99.90
4934;DHT22;2482;49.154;8.254;2022-11-06T02:02:42;5.40;99.90
4934;DHT22;2482;49.154;8.254;2022-11-06T02:05:09;5.30;99.90
4934;DHT22;2482;49.154;8.254;2022-11-06T02:07:37;5.30;99.90
4934;DHT22;2482;49.154;8.254;2022-11-06T02:10:05;5.20;99.90
4934;DHT22;2482;49.154;8.254;2022-11-06T02:12:43;5.10;99.90
4934;DHT22;2482;49.154;8.254;2022-11-06T02:24:18;5.00;99.90
4934;DHT22;2482;49.154;8.254;2022-11-06T02:27:22;5.10;99.90
4934;DHT22;2482;49.154;8.254;2022-11-06T02:35:48;5.30;99.90
4934;DHT22;2482;49.154;8.254;2022-11-06T02:38:24;5.50;99.90
4934;DHT22;2482;49.154;8.254;2022-11-06T02:40:57;5.40;99.90
4934;DHT22;2482;49.154;8.254;2022-11-06T02:43:31;5.50;99.90
4934;DHT22;2482;49.154;8.254;2022-11-06T02:46:07;5.40;99.90
4934;DHT22;2482;49.154;8.254;2022-11-06T02:48:46;5.40;99.90
4934;DHT22;2482;49.154;8.254;2022-11-06T02:51:22;5.30;99.90
4934;DHT22;2482;49.154;8.254;2022-11-06T02:53:52;5.40;99.90
4934;DHT22;2482;49.154;8.254;2022-11-06T02:56:29;5.20;99.90
4934;DHT22;2482;49.154;8.254;2022-11-06T02:59:11;5.20;99.90
4934;DHT22;2482;49.154;8.254;2022-11-06T03:01:48;5.20;99.90
4934;DHT22;2482;49.154;8.254;2022-11-06T03:04:30;5.30;99.90
4934;DHT22;2482;49.154;8.254;2022-11-06T03:07:13;5.20;99.90
4934;DHT22;2482;49.154;8.254;2022-11-06T03:09:43;5.40;99.90
4934;DHT22;2482;49.154;8.254;2022-11-06T03:15:25;5.60;99.90
4934;DHT22;2482;49.154;8.254;2022-11-06T03:23:42;5.10;99.90
4934;DHT22;2482;49.154;8.254;2022-11-06T03:26:23;5.20;99.90
4934;DHT22;2482;49.154;8.254;2022-11-06T03:29:00;5.40;99.90
4934;DHT22;2482;49.154;8.254;2022-11-06T03:31:37;5.40;99.90
4934;DHT22;2482;49.154;8.254;2022-11-06T03:34:09;5.30;99.90
4934;DHT22;2482;49.154;8.254;2022-11-06T03:36:42;5.10;99.90
4934;DHT22;2482;49.154;8.254;2022-11-06T03:39:16;5.30;99.90
4934;DHT22;2482;49.154;8.254;2022-11-06T03:42:15;5.30;99.90
4934;DHT22;2482;49.154;8.254;2022-11-06T03:44:47;5.50;99.90
4934;DHT22;2482;49.154;8.254;2022-11-06T03:50:11;5.20;99.90
4934;DHT22;2482;49.154;8.254;2022-11-06T03:52:48;5.30;99.90
4934;DHT22;2482;49.154;8.254;2022-11-06T03:55:23;5.40;99.90
4934;DHT22;2482;49.154;8.254;2022-11-06T03:57:57;5.40;99.90
4934;DHT22;2482;49.154;8.254;2022-11-06T04:00:26;5.20;99.90
4934;DHT22;2482;49.154;8.254;2022-11-06T04:02:57;5.40;99.90
4934;DHT22;2482;49.154;8.254;2022-11-06T04:05:41;5.30;99.90
4934;DHT22;2482;49.154;8.254;2022-11-06T04:08:13;5.30;99.90
4934;DHT22;2482;49.154;8.254;2022-11-06T04:11:04;5.40;99.90
4934;DHT22;2482;49.154;8.254;2022-11-06T04:13:53;5.30;99.90
4934;DHT22;2482;49.154;8.254;2022-11-06T04:16:32;5.30;99.90
4934;DHT22;2482;49.154;8.254;2022-11-06T04:19:01;5.30;99.90
4934;DHT22;2482;49.154;8.254;2022-11-06T04:21:47;5.40;99.90
4934;DHT22;2482;49.154;8.254;2022-11-06T04:30:34;5.10;99.90
4934;DHT22;2482;49.154;8.254;2022-11-06T04:33:10;5.10;99.90
4934;DHT22;2482;49.154;8.254;2022-11-06T04:38:41;5.20;99.90
4934;DHT22;2482;49.154;8.254;2022-11-06T04:44:37;5.30;99.90
4934;DHT22;2482;49.154;8.254;2022-11-06T04:47:09;5.40;99.90
4934;DHT22;2482;49.154;8.254;2022-11-06T04:49:41;5.30;99.90
4934;DHT22;2482;49.154;8.254;2022-11-06T04:52:19;5.40;99.90
4934;DHT22;2482;49.154;8.254;2022-11-06T04:54:49;5.40;99.90
4934;DHT22;2482;49.154;8.254;2022-11-06T04:57:18;5.40;99.90
4934;DHT22;2482;49.154;8.254;2022-11-06T04:59:54;5.50;99.90
4934;DHT22;2482;49.154;8.254;2022-11-06T05:02:23;5.50;99.90
4934;DHT22;2482;49.154;8.254;2022-11-06T05:04:51;5.40;99.90
4934;DHT22;2482;49.154;8.254;2022-11-06T05:07:18;5.40;99.90
4934;DHT22;2482;49.154;8.254;2022-11-06T05:09:45;5.40;99.90
4934;DHT22;2482;49.154;8.254;2022-11-06T05:12:14;5.50;99.90
4934;DHT22;2482;49.154;8.254;2022-11-06T05:14:41;5.50;99.90
4934;DHT22;2482;49.154;8.254;2022-11-06T05:17:08;5.50;99.90
4934;DHT22;2482;49.154;8.254;2022-11-06T05:19:36;5.40;99.90
4934;DHT22;2482;49.154;8.254;2022-11-06T05:22:02;5.50;99.90
4934;DHT22;2482;49.154;8.254;2022-11-06T05:24:49;5.30;99.90
4934;DHT22;2482;49.154;8.254;2022-11-06T05:27:16;5.40;99.90
4934;DHT22;2482;49.154;8.254;2022-11-06T05:29:43;5.20;99.90
4934;DHT22;2482;49.154;8.254;2022-11-06T05:32:13;5.20;99.90
4934;DHT22;2482;49.154;8.254;2022-11-06T05:34:40;5.20;99.90
4934;DHT22;2482;49.154;8.254;2022-11-06T05:37:08;5.20;99.90
4934;DHT22;2482;49.154;8.254;2022-11-06T05:39:35;5.20;99.90
4934;DHT22;2482;49.154;8.254;2022-11-06T05:42:08;4.90;99.90
4934;DHT22;2482;49.154;8.254;2022-11-06T05:44:35;5.00;99.90
4934;DHT22;2482;49.154;8.254;2022-11-06T05:47:03;4.80;99.90
4934;DHT22;2482;49.154;8.254;2022-11-06T05:49:32;5.00;99.90
4934;DHT22;2482;49.154;8.254;2022-11-06T05:51:58;4.90;99.90
4934;DHT22;2482;49.154;8.254;2022-11-06T05:54:26;4.70;99.90
4934;DHT22;2482;49.154;8.254;2022-11-06T05:56:53;4.70;99.90
4934;DHT22;2482;49.154;8.254;2022-11-06T05:59:20;4.70;99.90
4934;DHT22;2482;49.154;8.254;2022-11-06T06:01:48;4.70;99.90
4934;DHT22;2482;49.154;8.254;2022-11-06T06:04:16;4.70;99.90
4934;DHT22;2482;49.154;8.254;2022-11-06T06:06:43;4.60;99.90
4934;DHT22;2482;49.154;8.254;2022-11-06T06:09:10;4.40;99.90
4934;DHT22;2482;49.154;8.254;2022-11-06T06:11:38;4.60;99.90
4934;DHT22;2482;49.154;8.254;2022-11-06T06:14:05;4.80;99.90
4934;DHT22;2482;49.154;8.254;2022-11-06T06:16:32;4.90;99.90
4934;DHT22;2482;49.154;8.254;2022-11-06T06:18:59;4.90;99.90
4934;DHT22;2482;49.154;8.254;2022-11-06T06:21:27;4.80;99.90
4934;DHT22;2482;49.154;8.254;2022-11-06T06:23:55;4.80;99.90
4934;DHT22;2482;49.154;8.254;2022-11-06T06:26:22;4.40;99.90
4934;DHT22;2482;49.154;8.254;2022-11-06T06:28:50;4.50;99.90
4934;DHT22;2482;49.154;8.254;2022-11-06T06:31:18;4.60;99.90
4934;DHT22;2482;49.154;8.254;2022-11-06T06:33:47;4.50;99.90
4934;DHT22;2482;49.154;8.254;2022-11-06T06:36:14;4.90;99.90
4934;DHT22;2482;49.154;8.254;2022-11-06T06:38:41;4.80;99.90
4934;DHT22;2482;49.154;8.254;2022-11-06T06:41:10;4.50;99.90
4934;DHT22;2482;49.154;8.254;2022-11-06T06:43:37;4.60;99.90
4934;DHT22;2482;49.154;8.254;2022-11-06T06:46:08;4.80;99.90
4934;DHT22;2482;49.154;8.254;2022-11-06T06:48:35;4.70;99.90
4934;DHT22;2482;49.154;8.254;2022-11-06T06:51:03;4.70;99.90
4934;DHT22;2482;49.154;8.254;2022-11-06T06:53:31;4.60;99.90
4934;DHT22;2482;49.154;8.254;2022-11-06T06:55:58;4.80;99.90
4934;DHT22;2482;49.154;8.254;2022-11-06T06:58:29;4.60;99.90
4934;DHT22;2482;49.154;8.254;2022-11-06T07:01:03;4.60;99.90
4934;DHT22;2482;49.154;8.254;2022-11-06T07:03:32;4.50;99.90
4934;DHT22;2482;49.154;8.254;2022-11-06T07:06:07;4.50;99.90
4934;DHT22;2482;49.154;8.254;2022-11-06T07:08:34;4.40;99.90
4934;DHT22;2482;49.154;8.254;2022-11-06T07:11:06;4.70;99.90
4934;DHT22;2482;49.154;8.254;2022-11-06T07:13:34;4.80;99.90
4934;DHT22;2482;49.154;8.254;2022-11-06T07:16:08;4.80;99.90
4934;DHT22;2482;49.154;8.254;2022-11-06T07:18:37;4.50;99.90
4934;DHT22;2482;49.154;8.254;2022-11-06T07:21:10;4.40;99.90
4934;DHT22;2482;49.154;8.254;2022-11-06T07:23:37;4.50;99.90
4934;DHT22;2482;49.154;8.254;2022-11-06T07:26:05;4.30;99.90
4934;DHT22;2482;49.154;8.254;2022-11-06T07:28:32;4.30;99.90
4934;DHT22;2482;49.154;8.254;2022-11-06T07:31:21;4.30;99.90
4934;DHT22;2482;49.154;8.254;2022-11-06T07:33:48;4.30;99.90
4934;DHT22;2482;49.154;8.254;2022-11-06T07:36:15;4.30;99.90
4934;DHT22;2482;49.154;8.254;2022-11-06T07:38:42;4.50;99.90
4934;DHT22;2482;49.154;8.254;2022-11-06T07:41:11;4.60;99.90
4934;DHT22;2482;49.154;8.254;2022-11-06T07:43:41;4.70;99.90
4934;DHT22;2482;49.154;8.254;2022-11-06T07:46:11;4.70;99.90
4934;DHT22;2482;49.154;8.254;2022-11-06T07:48:38;4.90;99.90
4934;DHT22;2482;49.154;8.254;2022-11-06T07:51:07;4.80;99.90
4934;DHT22;2482;49.154;8.254;2022-11-06T07:53:36;4.80;99.90
4934;DHT22;2482;49.154;8.254;2022-11-06T07:56:03;5.00;99.90
4934;DHT22;2482;49.154;8.254;2022-11-06T07:58:32;5.20;99.90
4934;DHT22;2482;49.154;8.254;2022-11-06T08:00:59;5.40;99.90
4934;DHT22;2482;49.154;8.254;2022-11-06T08:03:29;5.50;99.90
4934;DHT22;2482;49.154;8.254;2022-11-06T08:05:57;5.70;99.90
4934;DHT22;2482;49.154;8.254;2022-11-06T08:08:26;5.50;99.90
4934;DHT22;2482;49.154;8.254;2022-11-06T08:10:54;5.40;99.90
4934;DHT22;2482;49.154;8.254;2022-11-06T08:13:23;5.20;99.90
4934;DHT22;2482;49.154;8.254;2022-11-06T08:15:54;5.20;99.90
4934;DHT22;2482;49.154;8.254;2022-11-06T08:18:21;5.50;99.90
4934;DHT22;2482;49.154;8.254;2022-11-06T08:20:51;5.40;99.90
4934;DHT22;2482;49.154;8.254;2022-11-06T08:23:27;5.50;99.90
4934;DHT22;2482;49.154;8.254;2022-11-06T08:26:00;5.30;99.90
4934;DHT22;2482;49.154;8.254;2022-11-06T08:28:28;5.50;99.90
4934;DHT22;2482;49.154;8.254;2022-11-06T08:30:57;5.60;99.90
4934;DHT22;2482;49.154;8.254;2022-11-06T08:33:24;5.90;99.90
4934;DHT22;2482;49.154;8.254;2022-11-06T08:35:51;5.70;99.90
4934;DHT22;2482;49.154;8.254;2022-11-06T08:38:18;5.80;99.90
4934;DHT22;2482;49.154;8.254;2022-11-06T08:40:44;5.90;99.90
4934;DHT22;2482;49.154;8.254;2022-11-06T08:43:21;6.00;99.90
4934;DHT22;2482;49.154;8.254;2022-11-06T08:45:52;6.00;99.90
4934;DHT22;2482;49.154;8.254;2022-11-06T08:48:19;5.90;99.90
4934;DHT22;2482;49.154;8.254;2022-11-06T08:50:46;6.00;99.90
4934;DHT22;2482;49.154;8.254;2022-11-06T08:53:15;6.00;99.90
4934;DHT22;2482;49.154;8.254;2022-11-06T08:55:43;5.90;99.90
4934;DHT22;2482;49.154;8.254;2022-11-06T08:58:10;5.70;99.90
4934;DHT22;2482;49.154;8.254;2022-11-06T09:00:37;5.60;99.90
4934;DHT22;2482;49.154;8.254;2022-11-06T09:03:13;5.60;99.90
4934;DHT22;2482;49.154;8.254;2022-11-06T09:05:42;5.50;99.90
4934;DHT22;2482;49.154;8.254;2022-11-06T09:08:13;5.50;99.90
4934;DHT22;2482;49.154;8.254;2022-11-06T09:10:41;5.60;99.90
4934;DHT22;2482;49.154;8.254;2022-11-06T09:13:09;5.70;99.90
4934;DHT22;2482;49.154;8.254;2022-11-06T09:15:37;5.90;99.90
4934;DHT22;2482;49.154;8.254;2022-11-06T09:18:05;5.90;99.90
4934;DHT22;2482;49.154;8.254;2022-11-06T09:20:33;5.90;99.90
4934;DHT22;2482;49.154;8.254;2022-11-06T09:23:05;5.90;99.90
4934;DHT22;2482;49.154;8.254;2022-11-06T09:25:33;6.50;99.90
4934;DHT22;2482;49.154;8.254;2022-11-06T09:28:02;7.10;99.90
4934;DHT22;2482;49.154;8.254;2022-11-06T09:30:34;7.10;99.90
4934;DHT22;2482;49.154;8.254;2022-11-06T09:33:02;7.10;99.90
4934;DHT22;2482;49.154;8.254;2022-11-06T09:35:34;7.30;99.90
4934;DHT22;2482;49.154;8.254;2022-11-06T09:38:08;7.60;99.90
4934;DHT22;2482;49.154;8.254;2022-11-06T09:40:58;7.00;99.90
4934;DHT22;2482;49.154;8.254;2022-11-06T09:43:45;6.80;99.90
4934;DHT22;2482;49.154;8.254;2022-11-06T09:46:41;6.80;99.90
4934;DHT22;2482;49.154;8.254;2022-11-06T09:54:43;7.90;99.90
4934;DHT22;2482;49.154;8.254;2022-11-06T09:57:54;8.00;99.90
4934;DHT22;2482;49.154;8.254;2022-11-06T10:00:23;8.00;99.90
4934;DHT22;2482;49.154;8.254;2022-11-06T10:02:51;8.20;99.90
4934;DHT22;2482;49.154;8.254;2022-11-06T10:05:25;8.10;99.90
4934;DHT22;2482;49.154;8.254;2022-11-06T10:08:02;8.00;99.90
4934;DHT22;2482;49.154;8.254;2022-11-06T10:13:56;8.10;99.90
4934;DHT22;2482;49.154;8.254;2022-11-06T10:19:55;9.00;99.90
4934;DHT22;2482;49.154;8.254;2022-11-06T10:34:41;8.50;99.90
4934;DHT22;2482;49.154;8.254;2022-11-06T10:37:25;8.50;99.90
4934;DHT22;2482;49.154;8.254;2022-11-06T10:40:04;8.30;99.90
4934;DHT22;2482;49.154;8.254;2022-11-06T10:42:36;8.20;99.90
4934;DHT22;2482;49.154;8.254;2022-11-06T10:45:17;8.40;99.90
4934;DHT22;2482;49.154;8.254;2022-11-06T10:47:54;8.60;99.90
4934;DHT22;2482;49.154;8.254;2022-11-06T10:50:27;8.80;99.90
4934;DHT22;2482;49.154;8.254;2022-11-06T10:56:11;9.00;99.90
4934;DHT22;2482;49.154;8.254;2022-11-06T10:58:47;8.90;99.90
4934;DHT22;2482;49.154;8.254;2022-11-06T11:01:14;9.10;99.90
4934;DHT22;2482;49.154;8.254;2022-11-06T11:03:42;9.00;99.90
4934;DHT22;2482;49.154;8.254;2022-11-06T11:06:11;9.10;99.90
4934;DHT22;2482;49.154;8.254;2022-11-06T11:08:49;9.10;99.90
4934;DHT22;2482;49.154;8.254;2022-11-06T11:11:25;9.00;99.90
4934;DHT22;2482;49.154;8.254;2022-11-06T11:16:38;9.00;99.90
4934;DHT22;2482;49.154;8.254;2022-11-06T11:19:39;9.10;99.90
4934;DHT22;2482;49.154;8.254;2022-11-06T11:22:17;9.10;99.90
4934;DHT22;2482;49.154;8.254;2022-11-06T11:25:04;9.10;99.90
4934;DHT22;2482;49.154;8.254;2022-11-06T11:27:43;9.40;99.90
4934;DHT22;2482;49.154;8.254;2022-11-06T11:30:20;9.30;99.90
4934;DHT22;2482;49.154;8.254;2022-11-06T11:32:49;9.40;99.90
4934;DHT22;2482;49.154;8.254;2022-11-06T11:35:19;9.30;99.90
4934;DHT22;2482;49.154;8.254;2022-11-06T11:37:50;9.30;99.90
4934;DHT22;2482;49.154;8.254;2022-11-06T11:40:36;9.30;99.90
4934;DHT22;2482;49.154;8.254;2022-11-06T11:43:27;9.20;99.90
4934;DHT22;2482;49.154;8.254;2022-11-06T11:49:00;9.40;99.90
4934;DHT22;2482;49.154;8.254;2022-11-06T11:51:37;9.70;99.90
4934;DHT22;2482;49.154;8.254;2022-11-06T11:59:56;9.60;99.90
4934;DHT22;2482;49.154;8.254;2022-11-06T12:02:33;9.60;99.90
4934;DHT22;2482;49.154;8.254;2022-11-06T12:05:17;9.60;99.90
4934;DHT22;2482;49.154;8.254;2022-11-06T12:07:54;9.80;99.90
4934;DHT22;2482;49.154;8.254;2022-11-06T12:10:32;9.90;99.90
4934;DHT22;2482;49.154;8.254;2022-11-06T12:13:19;10.00;99.90
4934;DHT22;2482;49.154;8.254;2022-11-06T12:16:06;10.10;99.90
4934;DHT22;2482;49.154;8.254;2022-11-06T12:18:44;10.10;99.90
4934;DHT22;2482;49.154;8.254;2022-11-06T12:21:16;10.00;99.90
4934;DHT22;2482;49.154;8.254;2022-11-06T12:23:55;10.10;99.90
4934;DHT22;2482;49.154;8.254;2022-11-06T12:26:48;10.20;99.90
4934;DHT22;2482;49.154;8.254;2022-11-06T12:29:43;10.30;99.90
4934;DHT22;2482;49.154;8.254;2022-11-06T12:35:30;10.20;99.90
4934;DHT22;2482;49.154;8.254;2022-11-06T12:38:09;10.50;99.90
4934;DHT22;2482;49.154;8.254;2022-11-06T12:40:49;10.70;99.90
4934;DHT22;2482;49.154;8.254;2022-11-06T13:14:02;10.90;99.90
4934;DHT22;2482;49.154;8.254;2022-11-06T13:19:29;10.80;99.90
4934;DHT22;2482;49.154;8.254;2022-11-06T13:22:25;10.70;99.90
4934;DHT22;2482;49.154;8.254;2022-11-06T13:25:20;10.80;99.90
4934;DHT22;2482;49.154;8.254;2022-11-06T13:28:03;10.60;99.90
4934;DHT22;2482;49.154;8.254;2022-11-06T13:30:32;10.70;99.90
4934;DHT22;2482;49.154;8.254;2022-11-06T13:33:26;10.60;99.90
4934;DHT22;2482;49.154;8.254;2022-11-06T13:35:55;10.50;99.90
4934;DHT22;2482;49.154;8.254;2022-11-06T13:38:37;10.40;99.90
4934;DHT22;2482;49.154;8.254;2022-11-06T13:41:28;10.40;99.90
4934;DHT22;2482;49.154;8.254;2022-11-06T13:44:10;10.50;99.90
4934;DHT22;2482;49.154;8.254;2022-11-06T13:46:58;10.60;99.90
4934;DHT22;2482;49.154;8.254;2022-11-06T13:55:19;10.50;99.90
4934;DHT22;2482;49.154;8.254;2022-11-06T14:06:55;10.60;99.90
4934;DHT22;2482;49.154;8.254;2022-11-06T14:09:25;10.60;99.90
4934;DHT22;2482;49.154;8.254;2022-11-06T14:11:59;10.60;99.90
4934;DHT22;2482;49.154;8.254;2022-11-06T14:14:43;10.70;99.90
4934;DHT22;2482;49.154;8.254;2022-11-06T14:17:21;10.70;99.90
4934;DHT22;2482;49.154;8.254;2022-11-06T14:20:00;10.70;99.90
4934;DHT22;2482;49.154;8.254;2022-11-06T14:22:32;10.80;99.90
4934;DHT22;2482;49.154;8.254;2022-11-06T14:38:51;10.50;99.90
4934;DHT22;2482;49.154;8.254;2022-11-06T14:41:52;10.40;99.90
4934;DHT22;2482;49.154;8.254;2022-11-06T14:44:32;10.40;99.90
4934;DHT22;2482;49.154;8.254;2022-11-06T14:47:02;10.50;99.90
4934;DHT22;2482;49.154;8.254;2022-11-06T14:49:41;10.40;99.90
4934;DHT22;2482;49.154;8.254;2022-11-06T14:52:15;10.30;99.90
4934;DHT22;2482;49.154;8.254;2022-11-06T14:57:47;10.20;99.90
4934;DHT22;2482;49.154;8.254;2022-11-06T15:03:36;10.10;99.90
4934;DHT22;2482;49.154;8.254;2022-11-06T15:16:58;9.60;99.90
4934;DHT22;2482;49.154;8.254;2022-11-06T15:19:43;9.70;99.90
4934;DHT22;2482;49.154;8.254;2022-11-06T15:22:25;9.80;99.90
4934;DHT22;2482;49.154;8.254;2022-11-06T15:25:16;9.80;99.90
4934;DHT22;2482;49.154;8.254;2022-11-06T15:28:00;9.60;99.90
4934;DHT22;2482;49.154;8.254;2022-11-06T15:33:19;9.40;99.90
4934;DHT22;2482;49.154;8.254;2022-11-06T15:35:54;9.40;99.90
4934;DHT22;2482;49.154;8.254;2022-11-06T15:38:23;9.20;99.90
4934;DHT22;2482;49.154;8.254;2022-11-06T15:41:01;9.30;99.90
4934;DHT22;2482;49.154;8.254;2022-11-06T15:43:33;9.30;99.90
4934;DHT22;2482;49.154;8.254;2022-11-06T15:46:25;9.20;99.90
4934;DHT22;2482;49.154;8.254;2022-11-06T15:49:27;9.20;99.90
4934;DHT22;2482;49.154;8.254;2022-11-06T15:57:26;9.20;99.90
4934;DHT22;2482;49.154;8.254;2022-11-06T16:03:00;9.20;99.90
4934;DHT22;2482;49.154;8.254;2022-11-06T16:05:31;9.20;99.90
4934;DHT22;2482;49.154;8.254;2022-11-06T16:08:00;9.30;99.90
4934;DHT22;2482;49.154;8.254;2022-11-06T16:10:27;9.40;99.90
4934;DHT22;2482;49.154;8.254;2022-11-06T16:12:54;9.30;99.90
4934;DHT22;2482;49.154;8.254;2022-11-06T16:20:55;8.90;99.90
4934;DHT22;2482;49.154;8.254;2022-11-06T16:23:47;8.90;99.90
4934;DHT22;2482;49.154;8.254;2022-11-06T16:28:52;9.00;99.90
4934;DHT22;2482;49.154;8.254;2022-11-06T16:31:26;9.00;99.90
4934;DHT22;2482;49.154;8.254;2022-11-06T16:34:00;8.90;99.90
4934;DHT22;2482;49.154;8.254;2022-11-06T16:36:29;8.90;99.90
4934;DHT22;2482;49.154;8.254;2022-11-06T16:47:27;8.90;99.90
4934;DHT22;2482;49.154;8.254;2022-11-06T16:49:56;8.70;99.90
4934;DHT22;2482;49.154;8.254;2022-11-06T16:52:38;8.80;99.90
4934;DHT22;2482;49.154;8.254;2022-11-06T16:55:22;8.90;99.90
4934;DHT22;2482;49.154;8.254;2022-11-06T16:57:56;8.80;99.90
4934;DHT22;2482;49.154;8.254;2022-11-06T17:00:29;8.80;99.90
4934;DHT22;2482;49.154;8.254;2022-11-06T17:03:06;8.70;99.90
4934;DHT22;2482;49.154;8.254;2022-11-06T17:05:37;8.80;99.90
4934;DHT22;2482;49.154;8.254;2022-11-06T17:08:26;8.90;99.90
4934;DHT22;2482;49.154;8.254;2022-11-06T17:10:57;8.90;99.90
4934;DHT22;2482;49.154;8.254;2022-11-06T17:13:26;9.10;99.90
4934;DHT22;2482;49.154;8.254;2022-11-06T17:16:00;8.90;99.90
4934;DHT22;2482;49.154;8.254;2022-11-06T17:18:34;8.90;99.90
4934;DHT22;2482;49.154;8.254;2022-11-06T17:21:05;8.80;99.90
4934;DHT22;2482;49.154;8.254;2022-11-06T17:23:33;8.80;99.90
4934;DHT22;2482;49.154;8.254;2022-11-06T17:26:04;8.70;99.90
4934;DHT22;2482;49.154;8.254;2022-11-06T17:28:33;8.80;99.90
4934;DHT22;2482;49.154;8.254;2022-11-06T17:31:00;8.90;99.90
4934;DHT22;2482;49.154;8.254;2022-11-06T17:33:27;9.10;99.90
4934;DHT22;2482;49.154;8.254;2022-11-06T17:35:54;9.10;99.90
4934;DHT22;2482;49.154;8.254;2022-11-06T17:38:21;8.90;99.90
4934;DHT22;2482;49.154;8.254;2022-11-06T17:40:48;8.80;99.90
4934;DHT22;2482;49.154;8.254;2022-11-06T17:43:15;8.70;99.90
4934;DHT22;2482;49.154;8.254;2022-11-06T17:45:43;8.50;99.90
4934;DHT22;2482;49.154;8.254;2022-11-06T17:48:11;8.60;99.90
4934;DHT22;2482;49.154;8.254;2022-11-06T17:50:38;8.50;99.90
4934;DHT22;2482;49.154;8.254;2022-11-06T17:53:24;8.80;99.90
4934;DHT22;2482;49.154;8.254;2022-11-06T17:55:51;9.00;99.90
4934;DHT22;2482;49.154;8.254;2022-11-06T17:58:18;8.90;99.90
4934;DHT22;2482;49.154;8.254;2022-11-06T18:00:45;9.00;99.90
4934;DHT22;2482;49.154;8.254;2022-11-06T18:03:20;9.00;99.90
4934;DHT22;2482;49.154;8.254;2022-11-06T18:05:48;9.00;99.90
4934;DHT22;2482;49.154;8.254;2022-11-06T18:08:15;8.90;99.90
4934;DHT22;2482;49.154;8.254;2022-11-06T18:10:43;8.80;99.90
4934;DHT22;2482;49.154;8.254;2022-11-06T18:13:10;8.80;99.90
4934;DHT22;2482;49.154;8.254;2022-11-06T18:15:37;8.80;99.90
4934;DHT22;2482;49.154;8.254;2022-11-06T18:18:03;8.70;99.90
4934;DHT22;2482;49.154;8.254;2022-11-06T18:20:30;8.60;99.90
4934;DHT22;2482;49.154;8.254;2022-11-06T18:22:57;8.50;99.90
4934;DHT22;2482;49.154;8.254;2022-11-06T18:25:24;8.70;99.90
4934;DHT22;2482;49.154;8.254;2022-11-06T18:27:51;8.80;99.90
4934;DHT22;2482;49.154;8.254;2022-11-06T18:30:19;8.80;99.90
4934;DHT22;2482;49.154;8.254;2022-11-06T18:32:46;8.80;99.90
4934;DHT22;2482;49.154;8.254;2022-11-06T18:35:13;8.90;99.90
4934;DHT22;2482;49.154;8.254;2022-11-06T18:37:40;8.90;99.90
4934;DHT22;2482;49.154;8.254;2022-11-06T18:40:07;8.90;99.90
4934;DHT22;2482;49.154;8.254;2022-11-06T18:42:34;8.80;99.90
4934;DHT22;2482;49.154;8.254;2022-11-06T18:45:01;8.90;99.90
4934;DHT22;2482;49.154;8.254;2022-11-06T18:47:28;9.00;99.90
4934;DHT22;2482;49.154;8.254;2022-11-06T18:49:55;9.00;99.90
4934;DHT22;2482;49.154;8.254;2022-11-06T18:52:22;8.90;99.90
4934;DHT22;2482;49.154;8.254;2022-11-06T18:55:09;8.80;99.90
4934;DHT22;2482;49.154;8.254;2022-11-06T18:57:36;8.90;99.90
4934;DHT22;2482;49.154;8.254;2022-11-06T19:00:04;8.90;99.90
4934;DHT22;2482;49.154;8.254;2022-11-06T19:02:32;8.80;99.90
4934;DHT22;2482;49.154;8.254;2022-11-06T19:04:59;8.80;99.90
4934;DHT22;2482;49.154;8.254;2022-11-06T19:07:27;8.80;99.90
4934;DHT22;2482;49.154;8.254;2022-11-06T19:09:54;8.90;99.90
4934;DHT22;2482;49.154;8.254;2022-11-06T19:12:21;8.90;99.90
4934;DHT22;2482;49.154;8.254;2022-11-06T19:14:48;9.00;99.90
4934;DHT22;2482;49.154;8.254;2022-11-06T19:17:15;8.90;99.90
4934;DHT22;2482;49.154;8.254;2022-11-06T19:19:42;8.90;99.90
4934;DHT22;2482;49.154;8.254;2022-11-06T19:22:09;8.90;99.90
4934;DHT22;2482;49.154;8.254;2022-11-06T19:24:36;8.90;99.90
4934;DHT22;2482;49.154;8.254;2022-11-06T19:27:03;9.00;99.90
4934;DHT22;2482;49.154;8.254;2022-11-06T19:29:30;8.90;99.90
4934;DHT22;2482;49.154;8.254;2022-11-06T19:31:58;9.00;99.90
4934;DHT22;2482;49.154;8.254;2022-11-06T19:34:28;8.90;99.90
4934;DHT22;2482;49.154;8.254;2022-11-06T19:36:59;8.80;99.90
4934;DHT22;2482;49.154;8.254;2022-11-06T19:39:26;8.80;99.90
4934;DHT22;2482;49.154;8.254;2022-11-06T19:41:53;8.80;99.90
4934;DHT22;2482;49.154;8.254;2022-11-06T19:44:20;8.90;99.90
4934;DHT22;2482;49.154;8.254;2022-11-06T19:46:48;8.90;99.90
4934;DHT22;2482;49.154;8.254;2022-11-06T19:49:15;8.90;99.90
4934;DHT22;2482;49.154;8.254;2022-11-06T19:51:42;8.90;99.90
4934;DHT22;2482;49.154;8.254;2022-11-06T19:54:09;9.00;99.90
4934;DHT22;2482;49.154;8.254;2022-11-06T19:56:36;9.00;99.90
4934;DHT22;2482;49.154;8.254;2022-11-06T19:59:24;9.10;99.90
4934;DHT22;2482;49.154;8.254;2022-11-06T20:01:51;9.00;99.90